createdAt,value
2019-01-10T00:00:03.513Z,992.70
2019-01-10T00:01:11.112Z,992.70
2019-01-10T00:02:17.839Z,992.71
2019-01-10T00:03:25.007Z,992.65
2019-01-10T00:04:31.798Z,992.66
2019-01-10T00:05:38.663Z,992.76
2019-01-10T00:06:45.672Z,992.70
2019-01-10T00:07:52.750Z,992.78
2019-01-10T00:08:59.820Z,992.84
2019-01-10T00:10:07.740Z,992.98
2019-01-10T00:11:13.504Z,992.85
2019-01-10T00:12:20.432Z,992.88
2019-01-10T00:13:27.487Z,992.91
2019-01-10T00:14:34.349Z,992.94
2019-01-10T00:15:41.385Z,992.92
2019-01-10T00:16:48.201Z,992.95
2019-01-10T00:17:55.119Z,992.92
2019-01-10T00:19:02.067Z,992.91
2019-01-10T00:20:09.075Z,992.92
2019-01-10T00:21:15.917Z,992.99
2019-01-10T00:22:22.498Z,992.92
2019-01-10T00:23:29.420Z,993.04
2019-01-10T00:24:36.412Z,992.99
2019-01-10T00:25:43.379Z,993.06
2019-01-10T00:26:50.565Z,993.02
2019-01-10T00:27:57.279Z,992.98
2019-01-10T00:29:04.230Z,993.04
2019-01-10T00:30:11.181Z,993.09
2019-01-10T00:31:17.966Z,993.09
2019-01-10T00:32:24.829Z,993.03
2019-01-10T00:33:31.683Z,993.02
2019-01-10T00:34:38.618Z,993.11
2019-01-10T00:35:45.553Z,993.13
2019-01-10T00:36:53.953Z,993.10
2019-01-10T00:37:59.413Z,993.11
2019-01-10T00:39:06.426Z,992.97
2019-01-10T00:40:13.302Z,993.04
2019-01-10T00:41:20.333Z,992.98
2019-01-10T00:42:27.346Z,993.06
2019-01-10T00:43:34.177Z,993.09
2019-01-10T00:44:41.029Z,993.12
2019-01-10T00:45:47.902Z,993.08
2019-01-10T00:46:54.758Z,993.13
2019-01-10T00:48:01.630Z,993.08
2019-01-10T00:49:08.697Z,993.10
2019-01-10T00:50:15.700Z,993.18
2019-01-10T00:51:22.671Z,993.19
2019-01-10T00:52:29.580Z,993.22
2019-01-10T00:53:36.484Z,993.29
2019-01-10T00:54:43.607Z,993.25
2019-01-10T00:55:50.499Z,993.28
2019-01-10T00:56:58.473Z,993.28
2019-01-10T00:58:04.226Z,993.35
2019-01-10T00:59:12.209Z,993.31
2019-01-10T01:00:18.426Z,993.34
2019-01-10T01:01:25.217Z,993.25
2019-01-10T01:02:32.305Z,993.32
2019-01-10T01:03:39.490Z,993.22
2019-01-10T01:04:46.333Z,993.35
2019-01-10T01:05:53.370Z,993.28
2019-01-10T01:07:00.372Z,993.33
2019-01-10T01:08:07.370Z,993.31
2019-01-10T01:09:14.093Z,993.28
2019-01-10T01:10:21.032Z,993.32
2019-01-10T01:11:27.783Z,993.42
2019-01-10T01:12:34.745Z,993.34
2019-01-10T01:13:41.794Z,993.35
2019-01-10T01:14:48.590Z,993.42
2019-01-10T01:15:55.657Z,993.41
2019-01-10T01:17:02.648Z,993.39
2019-01-10T01:18:09.466Z,993.39
2019-01-10T01:19:16.292Z,993.40
2019-01-10T01:20:23.160Z,993.42
2019-01-10T01:21:30.298Z,993.49
2019-01-10T01:22:36.876Z,993.43
2019-01-10T01:23:43.868Z,993.49
2019-01-10T01:24:50.802Z,993.49
2019-01-10T01:25:57.862Z,993.55
2019-01-10T01:27:04.813Z,993.60
2019-01-10T01:28:11.883Z,993.61
2019-01-10T01:29:18.954Z,993.62
2019-01-10T01:30:25.920Z,993.58
2019-01-10T01:31:32.871Z,993.66
2019-01-10T01:32:39.812Z,993.66
2019-01-10T01:33:47.001Z,993.66
2019-01-10T01:34:53.862Z,993.74
2019-01-10T01:36:00.797Z,993.75
2019-01-10T01:37:07.892Z,993.80
2019-01-10T01:38:14.744Z,993.80
2019-01-10T01:39:21.685Z,993.75
2019-01-10T01:40:28.703Z,993.73
2019-01-10T01:41:35.628Z,993.83
2019-01-10T01:42:42.487Z,993.87
2019-01-10T01:43:49.455Z,993.77
2019-01-10T01:44:56.322Z,993.83
2019-01-10T01:46:03.257Z,993.85
2019-01-10T01:47:10.315Z,993.76
2019-01-10T01:48:16.918Z,993.85
2019-01-10T01:49:23.806Z,993.85
2019-01-10T01:50:30.711Z,993.88
2019-01-10T01:51:37.696Z,993.80
2019-01-10T01:52:44.760Z,993.82
2019-01-10T01:53:51.821Z,993.88
2019-01-10T01:54:58.148Z,993.92
2019-01-10T01:56:05.074Z,993.82
2019-01-10T01:57:12.032Z,993.81
2019-01-10T01:58:18.881Z,993.74
2019-01-10T01:59:25.641Z,993.77
2019-01-10T02:00:33.524Z,993.82
2019-01-10T02:01:39.540Z,993.80
2019-01-10T02:02:46.882Z,993.81
2019-01-10T02:03:53.284Z,993.85
2019-01-10T02:05:00.176Z,993.81
2019-01-10T02:06:07.296Z,993.89
2019-01-10T02:07:14.383Z,993.83
2019-01-10T02:08:23.560Z,993.89
2019-01-10T02:09:28.244Z,993.98
2019-01-10T02:10:34.801Z,993.94
2019-01-10T02:11:41.657Z,993.97
2019-01-10T02:12:48.545Z,993.99
2019-01-10T02:13:55.539Z,993.92
2019-01-10T02:15:02.476Z,994.00
2019-01-10T02:16:09.376Z,993.86
2019-01-10T02:17:16.751Z,993.88
2019-01-10T02:18:24.924Z,993.96
2019-01-10T02:19:30.799Z,994.03
2019-01-10T02:20:37.459Z,994.01
2019-01-10T02:21:44.374Z,994.06
2019-01-10T02:22:51.212Z,994.03
2019-01-10T02:23:58.054Z,994.01
2019-01-10T02:25:04.714Z,994.07
2019-01-10T02:26:17.051Z,994.03
2019-01-10T02:27:18.710Z,993.99
2019-01-10T02:28:25.485Z,994.04
2019-01-10T02:29:32.781Z,994.03
2019-01-10T02:30:42.038Z,994.01
2019-01-10T02:31:45.609Z,993.98
2019-01-10T02:32:52.443Z,994.05
2019-01-10T02:33:59.713Z,994.08
2019-01-10T02:35:06.522Z,994.14
2019-01-10T02:36:13.469Z,994.12
2019-01-10T02:37:21.951Z,994.16
2019-01-10T02:38:27.397Z,994.25
2019-01-10T02:39:34.969Z,994.19
2019-01-10T02:40:42.007Z,994.20
2019-01-10T02:41:48.141Z,994.26
2019-01-10T02:46:51.798Z,994.23
2019-01-10T02:47:58.751Z,994.38
2019-01-10T02:49:05.723Z,994.32
2019-01-10T02:50:12.714Z,994.33
2019-01-10T02:51:20.357Z,994.35
2019-01-10T02:52:26.504Z,994.31
2019-01-10T02:53:33.428Z,994.34
2019-01-10T02:54:40.695Z,994.31
2019-01-10T02:55:47.538Z,994.36
2019-01-10T02:56:54.605Z,994.36
2019-01-10T02:58:01.517Z,994.36
2019-01-10T02:59:11.802Z,994.35
2019-01-10T03:00:15.713Z,994.34
2019-01-10T03:01:22.708Z,994.27
2019-01-10T03:02:29.475Z,994.40
2019-01-10T03:03:36.144Z,994.38
2019-01-10T03:05:50.129Z,994.26
2019-01-10T03:06:56.911Z,994.27
2019-01-10T03:08:04.047Z,994.28
2019-01-10T03:09:10.838Z,994.33
2019-01-10T03:10:17.926Z,994.28
2019-01-10T03:11:24.664Z,994.25
2019-01-10T03:12:31.257Z,994.34
2019-01-10T03:13:38.114Z,994.26
2019-01-10T03:14:45.774Z,994.36
2019-01-10T03:15:51.833Z,994.30
2019-01-10T03:16:58.908Z,994.36
2019-01-10T03:18:05.608Z,994.33
2019-01-10T03:19:13.203Z,994.29
2019-01-10T03:20:19.692Z,994.30
2019-01-10T03:21:26.503Z,994.35
2019-01-10T03:22:34.106Z,994.34
2019-01-10T03:23:40.661Z,994.34
2019-01-10T03:24:47.517Z,994.34
2019-01-10T03:25:54.516Z,994.36
2019-01-10T03:27:03.129Z,994.35
2019-01-10T03:28:08.338Z,994.35
2019-01-10T03:29:15.267Z,994.38
2019-01-10T03:30:22.387Z,994.34
2019-01-10T03:32:38.133Z,994.33
2019-01-10T03:33:44.427Z,994.34
2019-01-10T03:34:49.802Z,994.39
2019-01-10T03:35:56.668Z,994.31
2019-01-10T03:37:03.477Z,994.32
2019-01-10T03:38:10.062Z,994.34
2019-01-10T03:39:17.065Z,994.32
2019-01-10T03:40:23.917Z,994.32
2019-01-10T03:41:31.116Z,994.37
2019-01-10T03:42:37.861Z,994.38
2019-01-10T03:43:47.387Z,994.32
2019-01-10T03:44:51.435Z,994.32
2019-01-10T03:45:58.181Z,994.33
2019-01-10T03:47:05.840Z,994.34
2019-01-10T03:48:13.541Z,994.33
2019-01-10T03:49:18.364Z,994.32
2019-01-10T03:50:25.174Z,994.28
2019-01-10T03:51:32.029Z,994.30
2019-01-10T03:52:38.863Z,994.35
2019-01-10T03:53:45.705Z,994.26
2019-01-10T03:54:52.494Z,994.32
2019-01-10T03:55:59.330Z,994.25
2019-01-10T03:57:06.154Z,994.22
2019-01-10T03:58:13.023Z,994.24
2019-01-10T03:59:19.835Z,994.27
2019-01-10T04:00:26.636Z,994.32
2019-01-10T04:01:33.603Z,994.26
2019-01-10T04:02:40.664Z,994.24
2019-01-10T04:03:47.496Z,994.28
2019-01-10T04:04:54.339Z,994.28
2019-01-10T04:06:01.184Z,994.37
2019-01-10T04:07:08.096Z,994.35
2019-01-10T04:08:14.923Z,994.31
2019-01-10T04:09:21.770Z,994.32
2019-01-10T04:10:28.697Z,994.34
2019-01-10T04:11:35.529Z,994.33
2019-01-10T04:12:42.358Z,994.34
2019-01-10T04:13:57.367Z,994.21
2019-01-10T04:14:56.124Z,994.26
2019-01-10T04:16:03.012Z,994.24
2019-01-10T04:17:09.877Z,994.24
2019-01-10T04:18:16.704Z,994.22
2019-01-10T04:19:23.570Z,994.23
2019-01-10T04:20:30.453Z,994.24
2019-01-10T04:21:37.377Z,994.25
2019-01-10T04:22:44.193Z,994.26
2019-01-10T04:23:51.079Z,994.27
2019-01-10T04:24:57.877Z,994.28
2019-01-10T04:26:04.818Z,994.23
2019-01-10T04:27:11.681Z,994.35
2019-01-10T04:28:18.552Z,994.29
2019-01-10T04:29:25.375Z,994.30
2019-01-10T04:30:32.193Z,994.36
2019-01-10T04:31:39.059Z,994.32
2019-01-10T04:32:45.936Z,994.34
2019-01-10T04:33:52.766Z,994.41
2019-01-10T04:34:59.549Z,994.31
2019-01-10T04:36:06.437Z,994.43
2019-01-10T04:37:13.277Z,994.37
2019-01-10T04:38:20.077Z,994.39
2019-01-10T04:39:26.881Z,994.38
2019-01-10T04:40:33.713Z,994.31
2019-01-10T04:41:40.572Z,994.36
2019-01-10T04:42:47.542Z,994.36
2019-01-10T04:43:54.296Z,994.46
2019-01-10T04:45:01.144Z,994.38
2019-01-10T04:46:08.065Z,994.46
2019-01-10T04:47:14.941Z,994.49
2019-01-10T04:48:21.806Z,994.47
2019-01-10T04:49:28.701Z,994.43
2019-01-10T04:50:35.325Z,994.49
2019-01-10T04:51:42.310Z,994.47
2019-01-10T04:52:49.253Z,994.43
2019-01-10T04:53:56.118Z,994.46
2019-01-10T04:55:02.931Z,994.43
2019-01-10T04:56:10.684Z,994.45
2019-01-10T04:57:17.080Z,994.47
2019-01-10T04:58:23.936Z,994.50
2019-01-10T04:59:30.797Z,994.54
2019-01-10T05:00:37.664Z,994.55
2019-01-10T05:01:44.495Z,994.51
2019-01-10T05:02:51.421Z,994.49
2019-01-10T05:03:58.237Z,994.46
2019-01-10T05:05:05.031Z,994.64
2019-01-10T05:06:11.948Z,994.55
2019-01-10T05:07:18.791Z,994.64
2019-01-10T05:08:25.659Z,994.56
2019-01-10T05:09:32.546Z,994.64
2019-01-10T05:10:39.381Z,994.59
2019-01-10T05:11:46.424Z,994.66
2019-01-10T05:12:53.272Z,994.65
2019-01-10T05:14:00.144Z,994.61
2019-01-10T05:15:07.071Z,994.61
2019-01-10T05:16:13.905Z,994.59
2019-01-10T05:17:20.764Z,994.60
2019-01-10T05:18:27.637Z,994.52
2019-01-10T05:19:34.495Z,994.67
2019-01-10T05:20:41.388Z,994.55
2019-01-10T05:21:48.288Z,994.63
2019-01-10T05:22:55.190Z,994.61
2019-01-10T05:24:02.024Z,994.62
2019-01-10T05:25:08.994Z,994.65
2019-01-10T05:26:16.002Z,994.60
2019-01-10T05:27:22.881Z,994.64
2019-01-10T05:28:29.733Z,994.65
2019-01-10T05:29:36.539Z,994.60
2019-01-10T05:30:43.441Z,994.66
2019-01-10T05:31:50.213Z,994.60
2019-01-10T05:32:57.026Z,994.63
2019-01-10T05:34:03.853Z,994.73
2019-01-10T05:35:10.534Z,994.66
2019-01-10T05:36:17.397Z,994.69
2019-01-10T05:37:24.205Z,994.59
2019-01-10T05:38:31.039Z,994.75
2019-01-10T05:39:47.143Z,994.70
2019-01-10T05:40:44.637Z,994.75
2019-01-10T05:41:51.516Z,994.76
2019-01-10T05:42:58.341Z,994.76
2019-01-10T05:44:05.149Z,994.78
2019-01-10T05:45:12.077Z,994.78
2019-01-10T05:46:19.204Z,994.78
2019-01-10T05:47:26.026Z,994.81
2019-01-10T05:48:32.914Z,994.79
2019-01-10T05:49:39.734Z,994.86
2019-01-10T05:50:46.536Z,994.85
2019-01-10T05:51:53.385Z,994.89
2019-01-10T05:53:00.364Z,994.77
2019-01-10T05:54:07.216Z,994.85
2019-01-10T05:55:14.068Z,994.84
2019-01-10T05:56:20.845Z,994.82
2019-01-10T05:57:27.661Z,994.94
2019-01-10T05:58:34.484Z,994.89
2019-01-10T05:59:41.569Z,994.82
2019-01-10T06:00:48.430Z,994.76
2019-01-10T06:01:55.237Z,994.82
2019-01-10T06:03:02.065Z,994.83
2019-01-10T06:04:10.085Z,994.80
2019-01-10T06:05:15.909Z,994.77
2019-01-10T06:06:22.825Z,994.80
2019-01-10T06:07:29.841Z,994.84
2019-01-10T06:08:36.925Z,994.86
2019-01-10T06:09:43.716Z,994.93
2019-01-10T06:10:50.536Z,994.92
2019-01-10T06:11:57.373Z,994.92
2019-01-10T06:13:04.258Z,994.97
2019-01-10T06:14:11.073Z,994.92
2019-01-10T06:15:17.899Z,994.90
2019-01-10T06:16:24.829Z,994.97
2019-01-10T06:17:31.641Z,995.00
2019-01-10T06:18:38.541Z,994.90
2019-01-10T06:19:45.368Z,995.02
2019-01-10T06:20:52.253Z,995.02
2019-01-10T06:21:59.065Z,995.04
2019-01-10T06:23:05.876Z,995.05
2019-01-10T06:24:12.656Z,995.08
2019-01-10T06:25:19.450Z,995.07
2019-01-10T06:26:26.249Z,994.97
2019-01-10T06:27:33.050Z,995.04
2019-01-10T06:28:39.881Z,995.06
2019-01-10T06:29:46.676Z,995.13
2019-01-10T06:30:53.543Z,995.10
2019-01-10T06:32:00.382Z,995.04
2019-01-10T06:33:07.249Z,995.11
2019-01-10T06:34:14.076Z,995.05
2019-01-10T06:35:20.937Z,995.10
2019-01-10T06:36:27.749Z,995.12
2019-01-10T06:37:34.572Z,995.11
2019-01-10T06:38:41.608Z,995.10
2019-01-10T06:39:48.060Z,995.15
2019-01-10T06:40:55.027Z,995.20
2019-01-10T06:42:01.816Z,995.15
2019-01-10T06:43:08.688Z,995.14
2019-01-10T06:44:15.474Z,995.21
2019-01-10T06:45:22.279Z,995.23
2019-01-10T06:46:31.134Z,995.23
2019-01-10T06:47:35.883Z,995.29
2019-01-10T06:48:42.793Z,995.24
2019-01-10T06:49:49.642Z,995.25
2019-01-10T06:50:56.441Z,995.26
2019-01-10T06:52:03.327Z,995.16
2019-01-10T06:53:10.141Z,995.20
2019-01-10T06:54:17.600Z,995.22
2019-01-10T06:55:23.912Z,995.24
2019-01-10T06:56:30.840Z,995.18
2019-01-10T06:57:37.654Z,995.25
2019-01-10T06:58:44.469Z,995.29
2019-01-10T06:59:51.276Z,995.24
2019-01-10T07:00:58.114Z,995.29
2019-01-10T07:02:06.915Z,995.29
2019-01-10T07:03:11.863Z,995.21
2019-01-10T07:04:18.761Z,995.25
2019-01-10T07:05:25.614Z,995.28
2019-01-10T07:06:32.536Z,995.22
2019-01-10T07:07:39.380Z,995.33
2019-01-10T07:08:46.256Z,995.25
2019-01-10T07:09:53.110Z,995.30
2019-01-10T07:11:00.029Z,995.30
2019-01-10T07:12:07.828Z,995.32
2019-01-10T07:13:13.773Z,995.36
2019-01-10T07:14:20.600Z,995.39
2019-01-10T07:15:27.428Z,995.25
2019-01-10T07:16:34.246Z,995.29
2019-01-10T07:17:41.062Z,995.35
2019-01-10T07:18:47.936Z,995.34
2019-01-10T07:20:02.205Z,995.34
2019-01-10T07:21:01.637Z,995.37
2019-01-10T07:22:08.486Z,995.33
2019-01-10T07:23:15.168Z,995.37
2019-01-10T07:24:22.021Z,995.47
2019-01-10T07:25:28.820Z,995.43
2019-01-10T07:26:35.679Z,995.44
2019-01-10T07:27:42.453Z,995.43
2019-01-10T07:28:49.357Z,995.44
2019-01-10T07:29:56.176Z,995.44
2019-01-10T07:31:03.049Z,995.41
2019-01-10T07:32:09.964Z,995.44
2019-01-10T07:33:16.781Z,995.39
2019-01-10T07:34:23.607Z,995.40
2019-01-10T07:35:30.434Z,995.49
2019-01-10T07:36:37.232Z,995.55
2019-01-10T07:37:44.061Z,995.52
2019-01-10T07:38:51.048Z,995.54
2019-01-10T07:39:57.873Z,995.56
2019-01-10T07:41:04.720Z,995.52
2019-01-10T07:42:11.512Z,995.57
2019-01-10T07:43:18.293Z,995.58
2019-01-10T07:44:25.303Z,995.60
2019-01-10T07:45:32.353Z,995.67
2019-01-10T07:46:39.145Z,995.71
2019-01-10T07:47:46.114Z,995.70
2019-01-10T07:48:53.248Z,995.63
2019-01-10T07:50:00.051Z,995.62
2019-01-10T07:51:07.055Z,995.66
2019-01-10T07:52:13.949Z,995.73
2019-01-10T07:53:21.877Z,995.67
2019-01-10T07:54:27.668Z,995.73
2019-01-10T07:55:34.521Z,995.78
2019-01-10T07:56:41.361Z,995.76
2019-01-10T07:57:48.182Z,995.73
2019-01-10T07:58:54.978Z,995.83
2019-01-10T08:00:01.824Z,995.81
2019-01-10T08:01:08.904Z,995.92
2019-01-10T08:02:15.728Z,995.86
2019-01-10T08:03:22.557Z,995.85
2019-01-10T08:04:29.378Z,995.82
2019-01-10T08:05:36.214Z,995.79
2019-01-10T08:06:43.085Z,995.86
2019-01-10T08:07:50.061Z,995.87
2019-01-10T08:08:56.860Z,995.87
2019-01-10T08:10:03.664Z,995.90
2019-01-10T08:11:10.476Z,996.03
2019-01-10T08:12:17.269Z,995.94
2019-01-10T08:13:24.294Z,995.94
2019-01-10T08:14:31.060Z,995.98
2019-01-10T08:15:37.867Z,996.02
2019-01-10T08:16:44.692Z,996.05
2019-01-10T08:17:51.567Z,996.08
2019-01-10T08:18:58.526Z,996.07
2019-01-10T08:20:05.383Z,996.10
2019-01-10T08:21:12.360Z,996.08
2019-01-10T08:22:27.711Z,996.06
2019-01-10T08:23:26.208Z,996.13
2019-01-10T08:24:33.021Z,996.07
2019-01-10T08:25:39.826Z,996.11
2019-01-10T08:26:46.657Z,996.10
2019-01-10T08:27:53.533Z,996.11
2019-01-10T08:29:00.356Z,996.08
2019-01-10T08:30:07.284Z,996.09
2019-01-10T08:31:14.020Z,996.12
2019-01-10T08:32:20.885Z,996.12
2019-01-10T08:33:27.744Z,996.11
2019-01-10T08:34:34.656Z,996.13
2019-01-10T08:35:41.480Z,996.13
2019-01-10T08:36:48.294Z,996.10
2019-01-10T08:37:55.073Z,996.12
2019-01-10T08:39:01.925Z,996.17
2019-01-10T08:40:08.770Z,996.15
2019-01-10T08:41:15.713Z,996.23
2019-01-10T08:42:22.623Z,996.16
2019-01-10T08:43:29.447Z,996.27
2019-01-10T08:44:36.243Z,996.23
2019-01-10T08:45:42.977Z,996.23
2019-01-10T08:46:49.788Z,996.20
2019-01-10T08:47:56.624Z,996.24
2019-01-10T08:49:03.434Z,996.22
2019-01-10T08:50:10.379Z,996.17
2019-01-10T08:51:17.304Z,996.29
2019-01-10T08:52:24.135Z,996.16
2019-01-10T08:53:30.947Z,996.21
2019-01-10T08:54:37.728Z,996.27
2019-01-10T08:55:44.519Z,996.19
2019-01-10T08:56:51.390Z,996.24
2019-01-10T08:57:58.295Z,996.24
2019-01-10T08:59:05.176Z,996.20
2019-01-10T09:00:14.882Z,996.24
2019-01-10T09:01:19.169Z,996.25
2019-01-10T09:02:26.032Z,996.26
2019-01-10T09:03:32.917Z,996.33
2019-01-10T09:04:39.786Z,996.27
2019-01-10T09:05:46.656Z,996.33
2019-01-10T09:06:53.507Z,996.26
2019-01-10T09:08:00.400Z,996.24
2019-01-10T09:09:07.273Z,996.22
2019-01-10T09:10:14.161Z,996.20
2019-01-10T09:11:21.037Z,996.18
2019-01-10T09:12:27.917Z,996.24
2019-01-10T09:13:34.852Z,996.24
2019-01-10T09:14:41.695Z,996.21
2019-01-10T09:15:48.540Z,996.23
2019-01-10T09:16:55.408Z,996.27
2019-01-10T09:18:02.192Z,996.22
2019-01-10T09:19:09.112Z,996.30
2019-01-10T09:20:15.964Z,996.30
2019-01-10T09:21:23.533Z,996.27
2019-01-10T09:22:29.672Z,996.27
2019-01-10T09:23:36.518Z,996.32
2019-01-10T09:24:43.320Z,996.33
2019-01-10T09:25:50.118Z,996.30
2019-01-10T09:26:57.060Z,996.30
2019-01-10T09:28:03.999Z,996.37
2019-01-10T09:29:10.876Z,996.32
2019-01-10T09:30:17.695Z,996.32
2019-01-10T09:31:24.898Z,996.34
2019-01-10T09:32:31.724Z,996.34
2019-01-10T09:33:39.708Z,996.35
2019-01-10T09:34:45.456Z,996.33
2019-01-10T09:35:52.310Z,996.41
2019-01-10T09:36:59.201Z,996.30
2019-01-10T09:38:05.948Z,996.36
2019-01-10T09:39:12.772Z,996.34
2019-01-10T09:40:19.526Z,996.38
2019-01-10T09:41:26.671Z,996.34
2019-01-10T09:42:33.443Z,996.35
2019-01-10T09:43:40.251Z,996.26
2019-01-10T09:44:47.083Z,996.39
2019-01-10T09:45:53.925Z,996.39
2019-01-10T09:47:00.692Z,996.36
2019-01-10T09:48:07.635Z,996.36
2019-01-10T09:49:15.069Z,996.45
2019-01-10T09:50:21.199Z,996.46
2019-01-10T09:51:28.064Z,996.34
2019-01-10T09:52:34.811Z,996.43
2019-01-10T09:53:41.573Z,996.30
2019-01-10T09:54:48.372Z,996.42
2019-01-10T09:55:55.155Z,996.42
2019-01-10T09:57:01.956Z,996.36
2019-01-10T09:58:08.778Z,996.47
2019-01-10T09:59:15.584Z,996.47
2019-01-10T10:00:22.331Z,996.48
2019-01-10T10:01:29.236Z,996.47
2019-01-10T10:02:36.360Z,996.44
2019-01-10T10:03:43.204Z,996.41
2019-01-10T10:04:50.072Z,996.42
2019-01-10T10:05:56.792Z,996.45
2019-01-10T10:07:03.568Z,996.45
2019-01-10T10:08:10.363Z,996.48
2019-01-10T10:09:17.221Z,996.51
2019-01-10T10:10:24.098Z,996.45
2019-01-10T10:11:34.288Z,996.47
2019-01-10T10:12:37.903Z,996.47
2019-01-10T10:13:44.655Z,996.50
2019-01-10T10:14:51.509Z,996.48
2019-01-10T10:15:58.301Z,996.54
2019-01-10T10:17:05.217Z,996.56
2019-01-10T10:18:12.076Z,996.65
2019-01-10T10:19:18.964Z,996.56
2019-01-10T10:20:25.785Z,996.56
2019-01-10T10:21:32.706Z,996.47
2019-01-10T10:22:39.533Z,996.52
2019-01-10T10:23:46.301Z,996.48
2019-01-10T10:24:53.067Z,996.52
2019-01-10T10:25:59.973Z,996.56
2019-01-10T10:27:06.831Z,996.55
2019-01-10T10:28:13.611Z,996.52
2019-01-10T10:29:20.407Z,996.56
2019-01-10T10:30:27.243Z,996.59
2019-01-10T10:31:34.005Z,996.52
2019-01-10T10:32:40.753Z,996.57
2019-01-10T10:33:47.593Z,996.56
2019-01-10T10:34:54.359Z,996.52
2019-01-10T10:36:01.284Z,996.60
2019-01-10T10:37:07.956Z,996.59
2019-01-10T10:38:14.731Z,996.60
2019-01-10T10:39:21.516Z,996.70
2019-01-10T10:40:28.347Z,996.65
2019-01-10T10:41:35.309Z,996.61
2019-01-10T10:42:42.151Z,996.70
2019-01-10T10:43:49.044Z,996.65
2019-01-10T10:44:55.839Z,996.68
2019-01-10T10:46:02.628Z,996.74
2019-01-10T10:47:09.482Z,996.75
2019-01-10T10:48:16.252Z,996.66
2019-01-10T10:49:22.990Z,996.63
2019-01-10T10:50:29.824Z,996.61
2019-01-10T10:51:36.632Z,996.64
2019-01-10T10:52:43.409Z,996.60
2019-01-10T10:53:50.240Z,996.68
2019-01-10T10:54:57.013Z,996.65
2019-01-10T10:56:03.837Z,996.63
2019-01-10T10:57:10.642Z,996.73
2019-01-10T10:58:17.460Z,996.68
2019-01-10T10:59:24.274Z,996.61
2019-01-10T11:00:31.124Z,996.67
2019-01-10T11:01:38.058Z,996.63
2019-01-10T11:02:44.868Z,996.67
2019-01-10T11:03:51.673Z,996.65
2019-01-10T11:04:58.409Z,996.66
2019-01-10T11:06:05.259Z,996.62
2019-01-10T11:07:12.071Z,996.58
2019-01-10T11:08:18.908Z,996.62
2019-01-10T11:09:25.680Z,996.62
2019-01-10T11:10:32.515Z,996.64
2019-01-10T11:11:39.422Z,996.64
2019-01-10T11:12:46.263Z,996.70
2019-01-10T11:13:53.192Z,996.71
2019-01-10T11:15:00.015Z,996.67
2019-01-10T11:16:10.660Z,996.65
2019-01-10T11:17:13.799Z,996.53
2019-01-10T11:18:20.647Z,996.56
2019-01-10T11:19:27.404Z,996.65
2019-01-10T11:20:34.223Z,996.59
2019-01-10T11:21:41.061Z,996.59
2019-01-10T11:22:47.835Z,996.58
2019-01-10T11:23:54.801Z,996.61
2019-01-10T11:25:01.626Z,996.60
2019-01-10T11:26:08.551Z,996.53
2019-01-10T11:27:15.377Z,996.58
2019-01-10T11:28:22.222Z,996.50
2019-01-10T11:29:28.936Z,996.62
2019-01-10T11:30:35.685Z,996.59
2019-01-10T11:31:42.512Z,996.50
2019-01-10T11:32:49.299Z,996.55
2019-01-10T11:33:56.127Z,996.57
2019-01-10T11:35:02.889Z,996.45
2019-01-10T11:36:09.759Z,996.44
2019-01-10T11:37:16.512Z,996.48
2019-01-10T11:38:23.295Z,996.52
2019-01-10T11:39:30.065Z,996.62
2019-01-10T11:40:36.839Z,996.55
2019-01-10T11:41:43.635Z,996.54
2019-01-10T11:42:50.432Z,996.53
2019-01-10T11:43:57.271Z,996.54
2019-01-10T11:45:04.056Z,996.49
2019-01-10T11:46:19.264Z,996.50
2019-01-10T11:47:17.962Z,996.50
2019-01-10T11:48:24.790Z,996.52
2019-01-10T11:49:31.547Z,996.46
2019-01-10T11:50:38.291Z,996.51
2019-01-10T11:51:45.108Z,996.53
2019-01-10T11:52:51.866Z,996.52
2019-01-10T11:53:58.664Z,996.50
2019-01-10T11:55:05.428Z,996.50
2019-01-10T11:56:12.396Z,996.45
2019-01-10T11:57:19.233Z,996.49
2019-01-10T11:58:25.980Z,996.45
2019-01-10T11:59:32.795Z,996.44
2019-01-10T12:00:39.683Z,996.41
2019-01-10T12:01:47.068Z,996.38
2019-01-10T12:02:53.348Z,996.31
2019-01-10T12:04:00.177Z,996.30
2019-01-10T12:05:06.980Z,996.27
2019-01-10T12:06:13.751Z,996.35
2019-01-10T12:07:20.524Z,996.36
2019-01-10T12:08:27.317Z,996.27
2019-01-10T12:09:34.122Z,996.29
2019-01-10T12:10:40.993Z,996.26
2019-01-10T12:11:47.856Z,996.28
2019-01-10T12:12:54.691Z,996.30
2019-01-10T12:14:01.499Z,996.23
2019-01-10T12:15:08.309Z,996.24
2019-01-10T12:16:15.232Z,996.16
2019-01-10T12:17:21.987Z,996.15
2019-01-10T12:18:28.765Z,996.08
2019-01-10T12:19:35.506Z,996.22
2019-01-10T12:20:43.808Z,996.24
2019-01-10T12:21:49.378Z,996.25
2019-01-10T12:22:56.247Z,996.19
2019-01-10T12:24:03.152Z,996.20
2019-01-10T12:25:09.924Z,996.15
2019-01-10T12:26:16.784Z,996.13
2019-01-10T12:27:23.584Z,996.18
2019-01-10T12:28:30.438Z,996.13
2019-01-10T12:29:37.284Z,996.07
2019-01-10T12:30:44.035Z,996.04
2019-01-10T12:31:50.812Z,996.02
2019-01-10T12:32:57.670Z,996.00
2019-01-10T12:34:04.461Z,996.08
2019-01-10T12:35:11.228Z,996.05
2019-01-10T12:36:18.053Z,996.06
2019-01-10T12:37:24.821Z,995.90
2019-01-10T12:38:31.595Z,995.99
2019-01-10T12:39:38.415Z,995.94
2019-01-10T12:40:45.180Z,996.01
2019-01-10T12:41:51.924Z,995.99
2019-01-10T12:42:58.656Z,995.97
2019-01-10T12:44:06.461Z,995.88
2019-01-10T12:45:12.298Z,995.89
2019-01-10T12:46:19.165Z,995.96
2019-01-10T12:47:25.969Z,995.98
2019-01-10T12:48:32.739Z,995.95
2019-01-10T12:49:39.543Z,995.94
2019-01-10T12:50:46.350Z,995.91
2019-01-10T12:51:53.119Z,995.93
2019-01-10T12:52:59.969Z,995.95
2019-01-10T12:54:06.876Z,995.93
2019-01-10T12:55:13.643Z,995.88
2019-01-10T12:56:20.485Z,995.91
2019-01-10T12:57:27.247Z,995.96
2019-01-10T12:58:34.067Z,995.87
2019-01-10T12:59:40.836Z,995.92
2019-01-10T13:00:47.720Z,995.86
2019-01-10T13:01:54.536Z,995.87
2019-01-10T13:03:01.281Z,995.88
2019-01-10T13:04:08.130Z,995.79
2019-01-10T13:05:14.904Z,995.86
2019-01-10T13:06:21.864Z,995.88
2019-01-10T13:07:28.627Z,995.91
2019-01-10T13:08:35.424Z,995.87
2019-01-10T13:09:42.277Z,995.89
2019-01-10T13:10:49.040Z,995.92
2019-01-10T13:11:55.819Z,995.93
2019-01-10T13:13:02.685Z,995.94
2019-01-10T13:14:09.504Z,996.00
2019-01-10T13:15:16.400Z,996.08
2019-01-10T13:16:23.539Z,996.06
2019-01-10T13:17:30.364Z,996.02
2019-01-10T13:18:37.161Z,996.03
2019-01-10T13:19:43.943Z,996.11
2019-01-10T13:20:50.712Z,996.10
2019-01-10T13:21:57.516Z,996.15
2019-01-10T13:23:04.391Z,996.16
2019-01-10T13:24:11.211Z,996.12
2019-01-10T13:25:18.008Z,996.12
2019-01-10T13:26:25.120Z,996.05
2019-01-10T13:27:31.909Z,996.10
2019-01-10T13:28:38.731Z,996.10
2019-01-10T13:29:45.496Z,996.04
2019-01-10T13:30:52.251Z,996.01
2019-01-10T13:31:59.036Z,996.01
2019-01-10T13:33:05.855Z,995.99
2019-01-10T13:34:12.652Z,996.04
2019-01-10T13:35:19.423Z,996.08
2019-01-10T13:36:26.196Z,996.07
2019-01-10T13:37:32.951Z,995.98
2019-01-10T13:38:39.764Z,995.99
2019-01-10T13:39:46.580Z,995.99
2019-01-10T13:40:53.358Z,995.99
2019-01-10T13:42:00.272Z,995.99
2019-01-10T13:43:07.047Z,995.97
2019-01-10T13:44:13.835Z,995.93
2019-01-10T13:45:20.597Z,995.95
2019-01-10T13:46:28.581Z,995.99
2019-01-10T13:47:34.291Z,995.96
2019-01-10T13:48:41.151Z,995.89
2019-01-10T13:49:47.981Z,995.91
2019-01-10T13:50:54.817Z,995.97
2019-01-10T13:52:01.684Z,995.91
2019-01-10T13:53:08.564Z,995.98
2019-01-10T13:54:15.431Z,995.90
2019-01-10T13:55:22.304Z,995.94
2019-01-10T13:56:29.215Z,995.98
2019-01-10T13:57:36.045Z,995.91
2019-01-10T13:58:42.813Z,995.98
2019-01-10T13:59:49.596Z,996.01